Time;durP1;ratioP1;P1;durP2;ratioP2;P2;SDS_P1;SDS_P2;PMS_P1;PMS_P2;Temp;Humidity;BMP_temperature;BMP_pressure;BME280_temperature;BME280_humidity;BME280_pressure;Samples;Min_cycle;Max_cycle;Signal;HPM_P1;HPM_P2
2022/04/09 00:01:44;;;;;;;0.45;0.10;;;17.30;39.40;20.10;92176.00;;;;10251964;28;45431;-64
2022/04/09 00:06:45;;;;;;;0.77;0.20;;;17.30;39.40;20.10;92214.00;;;;10251196;28;46516;-64
2022/04/09 00:11:45;;;;;;;0.43;0.15;;;17.30;39.50;20.10;92215.00;;;;10251594;28;45483;-64
2022/04/09 00:16:46;;;;;;;0.17;0.10;;;17.30;39.40;20.10;92207.00;;;;10250698;28;46493;-64
2022/04/09 00:21:47;;;;;;;0.20;0.10;;;17.30;39.40;20.10;92231.00;;;;10251168;28;46308;-64
2022/04/09 00:26:47;;;;;;;0.25;0.10;;;17.30;39.40;20.10;92240.00;;;;10250516;28;45265;-65
2022/04/09 00:31:48;;;;;;;0.13;0.08;;;17.30;39.40;20.10;92283.00;;;;10250641;28;47479;-64
2022/04/09 00:36:49;;;;;;;1.38;0.10;;;17.30;39.40;20.10;92344.00;;;;10250145;28;45330;-64
2022/04/09 00:41:50;;;;;;;0.25;0.10;;;17.30;39.30;20.10;92364.00;;;;10235618;28;45358;-64
2022/04/09 00:46:51;;;;;;;0.10;0.00;;;17.30;39.30;20.10;92378.00;;;;10249881;28;45593;-64
2022/04/09 00:51:55;;;;;;;0.65;0.10;;;17.30;39.20;20.10;92400.00;;;;10249744;28;45699;-65
2022/04/09 00:57:05;;;;;;;0.57;0.20;;;17.30;39.20;20.10;92402.00;;;;10249781;28;45377;-64
2022/04/09 01:02:05;;;;;;;0.10;0.00;;;17.30;39.20;20.10;92404.00;;;;10228596;28;45257;-65
2022/04/09 01:07:08;;;;;;;0.10;0.03;;;17.30;39.10;20.10;92426.00;;;;10248068;28;47217;-65
2022/04/09 01:12:09;;;;;;;0.00;0.00;;;17.30;39.10;20.10;92424.00;;;;10249916;28;45603;-66
2022/04/09 01:17:10;;;;;;;0.20;0.05;;;17.30;39.00;20.10;92438.00;;;;10249193;28;46269;-65
2022/04/09 01:22:10;;;;;;;0.73;0.00;;;17.30;39.10;20.10;92465.00;;;;10249153;28;45210;-65
2022/04/09 01:27:11;;;;;;;0.43;0.10;;;17.30;38.80;20.10;92465.00;;;;10234131;28;46497;-64
2022/04/09 01:32:12;;;;;;;0.20;0.08;;;17.30;38.80;20.10;92483.00;;;;10249533;28;45475;-65
2022/04/09 01:37:14;;;;;;;0.68;0.10;;;17.30;38.70;20.10;92525.00;;;;10248375;28;47361;-64
2022/04/09 01:42:15;;;;;;;0.10;0.00;;;17.30;38.60;20.10;92537.00;;;;10248969;28;47398;-65
2022/04/09 01:47:15;;;;;;;0.00;0.00;;;17.30;38.50;20.10;92550.00;;;;10248439;28;45218;-65
2022/04/09 01:52:16;;;;;;;0.22;0.00;;;17.30;38.50;20.10;92569.00;;;;10248586;28;47109;-65
2022/04/09 01:57:17;;;;;;;0.10;0.00;;;17.30;38.50;20.10;92593.00;;;;10248383;28;45380;-65
2022/04/09 02:02:17;;;;;;;0.08;0.00;;;17.30;38.40;20.10;92607.00;;;;10232439;28;46473;-65
2022/04/09 02:07:19;;;;;;;0.00;0.00;;;17.30;38.30;20.10;92641.00;;;;10232967;28;45221;-65
2022/04/09 02:12:20;;;;;;;0.00;0.00;;;17.30;38.40;20.10;92680.00;;;;10248097;28;47373;-66
2022/04/09 02:17:21;;;;;;;0.00;0.00;;;17.30;38.40;20.10;92687.00;;;;10247292;28;47283;-65
2022/04/09 02:22:21;;;;;;;0.00;0.00;;;17.20;38.30;20.10;92731.00;;;;10232947;28;45239;-65
2022/04/09 02:27:22;;;;;;;0.10;0.00;;;17.30;38.20;20.10;92734.00;;;;10247286;28;47761;-65
2022/04/09 02:32:23;;;;;;;0.00;0.00;;;17.30;38.20;20.10;92773.00;;;;10247962;28;45187;-65
2022/04/09 02:37:24;;;;;;;0.00;0.00;;;17.30;38.00;20.10;92779.00;;;;10246783;28;48042;-64
2022/04/09 02:42:24;;;;;;;0.10;0.00;;;17.30;38.00;20.10;92814.00;;;;10232748;28;45579;-66
2022/04/09 02:47:25;;;;;;;0.00;0.00;;;17.30;37.80;20.10;92830.00;;;;10231968;28;45590;-65
2022/04/09 02:52:29;;;;;;;0.00;0.00;;;17.30;37.70;20.10;92834.00;;;;10247483;28;46245;-65
2022/04/09 02:57:29;;;;;;;0.03;0.00;;;17.30;37.60;20.10;92846.00;;;;10246074;28;45425;-66
2022/04/09 03:02:30;;;;;;;0.00;0.00;;;17.30;37.50;20.10;92875.00;;;;10246920;28;46935;-66
2022/04/09 03:07:31;;;;;;;0.00;0.00;;;17.30;37.40;20.10;92891.00;;;;10246269;28;48014;-66
2022/04/09 03:12:32;;;;;;;0.00;0.00;;;17.30;37.40;20.10;92873.00;;;;10247216;28;46575;-66
2022/04/09 03:17:33;;;;;;;0.00;0.00;;;17.30;37.40;20.10;92900.00;;;;10252807;28;47196;-65
2022/04/09 03:22:34;;;;;;;0.00;0.00;;;17.30;37.30;20.10;92912.00;;;;10238321;28;46267;-65
2022/04/09 03:27:35;;;;;;;0.00;0.00;;;17.20;37.30;20.10;92918.00;;;;10236100;28;47744;-65
2022/04/09 03:32:37;;;;;;;0.00;0.00;;;17.30;37.30;20.10;92924.00;;;;10253029;28;45650;-65
2022/04/09 03:37:39;;;;;;;0.00;0.00;;;17.30;37.30;20.10;92924.00;;;;10252416;28;47830;-65
2022/04/09 03:42:40;;;;;;;0.00;0.00;;;17.30;37.10;20.10;92932.00;;;;10252819;28;46699;-66
2022/04/09 03:47:41;;;;;;;0.00;0.00;;;17.20;37.10;20.10;92945.00;;;;10252097;28;46600;-66
2022/04/09 03:52:42;;;;;;;0.00;0.00;;;17.20;36.90;20.10;92962.00;;;;10237513;28;45358;-64
2022/04/09 03:57:42;;;;;;;0.00;0.00;;;17.20;36.90;20.10;92969.00;;;;10236999;28;46355;-65
2022/04/09 04:02:43;;;;;;;0.00;0.00;;;17.20;36.80;20.10;92997.00;;;;10237280;28;45278;-65
2022/04/09 04:07:45;;;;;;;0.00;0.00;;;17.20;36.80;20.10;93007.00;;;;10251803;28;46692;-66
2022/04/09 04:12:45;;;;;;;0.00;0.00;;;17.20;36.60;20.10;93028.00;;;;10251840;28;45409;-65
2022/04/09 04:17:46;;;;;;;0.13;0.00;;;17.30;36.40;20.10;93031.00;;;;10235901;28;45352;-65
2022/04/09 04:22:47;;;;;;;0.00;0.00;;;17.40;36.30;20.20;93040.00;;;;10251279;28;48583;-64
2022/04/09 04:27:51;;;;;;;0.00;0.00;;;17.40;36.00;20.20;93045.00;;;;10234990;28;45318;-65
2022/04/09 04:32:52;;;;;;;0.15;0.00;;;17.50;35.80;20.20;93054.00;;;;10250854;28;47487;-65
2022/04/09 04:37:54;;;;;;;0.10;0.00;;;17.50;35.60;20.20;93057.00;;;;10235978;28;45334;-65
2022/04/09 04:42:54;;;;;;;0.00;0.00;;;17.50;35.60;20.30;93081.00;;;;10250761;28;47338;-66
2022/04/09 04:47:55;;;;;;;0.00;0.00;;;17.50;35.50;20.30;93101.00;;;;10235565;28;45398;-66
2022/04/09 04:52:56;;;;;;;0.00;0.00;;;17.60;35.40;20.30;93114.00;;;;10250610;28;45379;-65
2022/04/09 04:57:57;;;;;;;0.03;0.00;;;17.60;35.30;20.30;93114.00;;;;10250020;28;45534;-66
2022/04/09 05:02:58;;;;;;;0.05;0.00;;;17.60;35.30;20.30;93133.00;;;;10250019;28;47372;-65
2022/04/09 05:07:58;;;;;;;0.10;0.00;;;17.60;35.20;20.30;93141.00;;;;10249743;28;47146;-65
2022/04/09 05:12:59;;;;;;;0.00;0.00;;;17.60;35.10;20.30;93129.00;;;;10235032;28;46444;-66
2022/04/09 05:18:03;;;;;;;0.10;0.00;;;17.60;35.00;20.40;93153.00;;;;10249474;28;46150;-66
2022/04/09 05:23:04;;;;;;;0.20;0.00;;;17.60;34.90;20.40;93157.00;;;;10249580;28;48489;-65
2022/04/09 05:28:08;;;;;;;0.50;0.00;;;17.60;34.80;20.40;93141.00;;;;10234047;28;46264;-66
2022/04/09 05:33:09;;;;;;;0.10;0.10;;;17.60;34.80;20.40;93142.00;;;;10249121;28;46087;-65
2022/04/09 05:38:10;;;;;;;0.10;0.00;;;17.60;34.80;20.40;93154.00;;;;10233383;28;46441;-66
2022/04/09 05:43:11;;;;;;;0.20;0.00;;;17.60;34.50;20.40;93161.00;;;;10248691;28;46885;-65
2022/04/09 05:48:12;;;;;;;0.00;0.00;;;17.60;34.40;20.40;93182.00;;;;10233427;28;45209;-65
2022/04/09 05:53:12;;;;;;;0.00;0.00;;;17.70;34.50;20.40;93175.00;;;;10233633;28;45574;-65
2022/04/09 05:58:14;;;;;;;0.20;0.00;;;17.70;34.40;20.40;93194.00;;;;10248413;28;45329;-65
2022/04/09 06:03:17;;;;;;;0.50;0.00;;;17.60;34.30;20.40;93205.00;;;;10248338;28;46132;-66
2022/04/09 06:08:18;;;;;;;0.15;0.00;;;17.70;34.30;20.40;93236.00;;;;10247674;28;46971;-65
2022/04/09 06:13:19;;;;;;;0.00;0.00;;;17.70;34.20;20.40;93239.00;;;;10248226;28;45302;-65
2022/04/09 06:18:19;;;;;;;0.10;0.10;;;17.70;34.00;20.40;93257.00;;;;10232741;28;46667;-65
2022/04/09 06:23:20;;;;;;;0.10;0.10;;;17.70;34.10;20.40;93268.00;;;;10247657;28;47208;-65
2022/04/09 06:28:20;;;;;;;0.43;0.20;;;17.70;34.00;20.40;93268.00;;;;10247043;28;46964;-64
2022/04/09 06:33:21;;;;;;;0.10;0.10;;;17.70;34.00;20.50;93287.00;;;;10247097;28;48194;-65
2022/04/09 06:38:22;;;;;;;0.10;0.10;;;17.70;34.00;20.50;93290.00;;;;10246979;28;45398;-65
2022/04/09 06:43:22;;;;;;;0.00;0.00;;;17.70;33.80;20.50;93292.00;;;;10247830;28;46835;-66
2022/04/09 06:48:23;;;;;;;0.10;0.10;;;17.70;33.80;20.50;93309.00;;;;10248969;28;47037;-63
2022/04/09 06:53:24;;;;;;;0.00;0.00;;;17.70;33.70;20.50;93308.00;;;;10239544;28;45436;-65
2022/04/09 06:58:24;;;;;;;0.10;0.00;;;17.70;33.60;20.50;93308.00;;;;10253361;28;45651;-66
2022/04/09 07:03:26;;;;;;;0.45;0.10;;;17.70;33.60;20.50;93334.00;;;;10253766;28;47210;-66
2022/04/09 07:08:27;;;;;;;0.00;0.00;;;17.70;33.60;20.50;93334.00;;;;10298881;23;45881;-65
2022/04/09 07:13:29;;;;;;;0.08;0.08;;;17.70;33.60;20.50;93343.00;;;;10259630;28;48167;-65
2022/04/09 07:18:29;;;;;;;0.85;0.00;;;17.70;33.70;20.50;93340.00;;;;10285977;28;48028;-66
2022/04/09 07:23:30;;;;;;;1.13;0.10;;;17.80;33.80;20.60;93337.00;;;;10318493;28;45540;-66
2022/04/09 07:28:30;;;;;;;0.57;0.00;;;17.70;33.60;20.60;93356.00;;;;10316267;28;47232;-66
2022/04/09 07:33:31;;;;;;;0.10;0.00;;;17.70;33.70;20.60;93359.00;;;;10317101;28;45388;-66
2022/04/09 07:38:32;;;;;;;0.93;0.10;;;17.70;33.60;20.60;93370.00;;;;10316572;28;46485;-65
2022/04/09 07:43:32;;;;;;;0.20;0.20;;;17.80;33.60;20.60;93367.00;;;;10316904;28;45250;-65
2022/04/09 07:48:34;;;;;;;1.38;0.40;;;17.80;33.50;20.50;93388.00;;;;10316158;28;46475;-67
2022/04/09 07:53:34;;;;;;;0.22;0.13;;;17.60;32.70;20.50;93379.00;;;;10299813;28;47268;-65
2022/04/09 07:58:35;;;;;;;0.25;0.10;;;17.60;32.30;20.50;93391.00;;;;10299593;28;48421;-65
2022/04/09 08:03:36;;;;;;;0.20;0.03;;;17.60;32.60;20.50;93396.00;;;;10315732;28;45543;-65
2022/04/09 08:08:37;;;;;;;0.32;0.10;;;17.70;32.70;20.60;93398.00;;;;10315448;28;45175;-65
2022/04/09 08:13:37;;;;;;;0.10;0.10;;;17.70;32.60;20.60;93402.00;;;;10315786;28;47381;-65
2022/04/09 08:18:39;;;;;;;0.10;0.10;;;17.70;32.70;20.60;93414.00;;;;10316406;28;46038;-66
2022/04/09 08:23:40;;;;;;;0.00;0.00;;;17.80;32.70;20.60;93420.00;;;;10317338;28;45426;-66
2022/04/09 08:28:41;;;;;;;0.10;0.03;;;17.80;32.90;20.60;93418.00;;;;10298149;28;47256;-66
2022/04/09 08:33:42;;;;;;;1.13;0.20;;;17.80;33.00;20.60;93438.00;;;;10297900;28;47693;-67
2022/04/09 08:38:43;;;;;;;0.30;0.10;;;17.80;33.00;20.60;93421.00;;;;10315141;28;45331;-67
2022/04/09 08:43:43;;;;;;;0.20;0.10;;;17.80;33.40;20.70;93429.00;;;;10297665;28;47291;-67
2022/04/09 08:48:48;;;;;;;0.05;0.00;;;17.80;33.70;20.70;93424.00;;;;10297560;28;47727;-67
2022/04/09 08:53:50;;;;;;;0.35;0.10;;;17.90;34.10;20.70;93431.00;;;;10314170;28;47375;-67
2022/04/09 08:58:52;;;;;;;0.10;0.10;;;17.90;34.30;20.60;93434.00;;;;10313711;28;45448;-67
2022/04/09 09:03:53;;;;;;;0.73;0.10;;;17.70;35.20;20.70;93439.00;;;;10312235;28;45756;-67
2022/04/09 09:09:00;;;;;;;0.00;0.00;;;17.80;35.30;20.70;93443.00;;;;10296700;28;46334;-67
2022/04/09 09:14:02;;;;;;;0.03;0.00;;;17.90;35.40;20.70;93437.00;;;;10296366;28;45192;-67
2022/04/09 09:19:05;;;;;;;0.10;0.10;;;17.90;35.30;20.70;93440.00;;;;10297076;28;46901;-65
2022/04/09 09:24:06;;;;;;;0.10;0.10;;;17.90;35.40;20.70;93436.00;;;;10297110;28;48060;-66
2022/04/09 09:29:09;;;;;;;0.22;0.10;;;17.90;35.30;20.70;93453.00;;;;10314556;28;46208;-65
2022/04/09 09:34:19;;;;;;;0.65;0.10;;;17.90;35.30;20.70;93447.00;;;;10298178;28;48039;-65
2022/04/09 09:39:24;;;;;;;0.17;0.10;;;17.90;35.20;20.70;93464.00;;;;10318520;28;45455;-65
2022/04/09 09:44:27;;;;;;;0.13;0.10;;;18.00;35.60;20.70;93460.00;;;;10334749;28;45554;-63
2022/04/09 09:49:27;;;;;;;0.05;0.03;;;17.90;35.60;20.80;93451.00;;;;10317514;28;46106;-66
2022/04/09 09:54:29;;;;;;;0.40;0.15;;;18.00;35.60;20.80;93471.00;;;;10310529;28;48112;-64
2022/04/09 09:59:31;;;;;;;0.40;0.10;;;18.00;35.70;20.80;93477.00;;;;10321858;28;45162;-64
2022/04/09 10:04:32;;;;;;;0.17;0.10;;;18.00;35.90;20.80;93461.00;;;;10322565;28;45237;-64
2022/04/09 10:09:33;;;;;;;0.90;0.20;;;18.00;36.00;20.90;93456.00;;;;10319364;28;46395;-64
2022/04/09 10:14:38;;;;;;;1.55;0.00;;;18.10;35.80;20.80;93445.00;;;;10320660;28;45480;-64
2022/04/09 10:19:43;;;;;;;0.50;0.13;;;18.10;36.20;20.90;93452.00;;;;10335464;28;46568;-64
2022/04/09 10:24:44;;;;;;;1.40;0.20;;;18.10;36.40;20.90;93457.00;;;;10338839;28;45389;-63
2022/04/09 10:29:49;;;;;;;0.22;0.10;;;18.10;35.80;20.80;93454.00;;;;10343154;28;45577;-64
2022/04/09 10:34:50;;;;;;;0.52;0.30;;;18.00;36.20;20.70;93453.00;;;;10343414;28;47177;-64
2022/04/09 10:39:53;;;;;;;0.20;0.20;;;17.90;36.40;20.70;93452.00;;;;10342802;28;47189;-64
2022/04/09 10:44:54;;;;;;;0.10;0.00;;;17.90;36.30;20.80;93454.00;;;;10342887;28;47083;-63
2022/04/09 10:50:00;;;;;;;0.10;0.10;;;18.00;36.40;20.70;93453.00;;;;10342587;28;45222;-63
2022/04/09 10:55:20;;;;;;;0.50;0.10;;;18.00;36.40;20.80;93450.00;;;;10360480;28;45612;-65
2022/04/09 11:00:33;;;;;;;1.65;0.40;;;17.90;36.20;20.70;93446.00;;;;10360216;28;45122;-63
2022/04/09 11:05:34;;;;;;;0.25;0.10;;;17.90;36.30;20.70;93471.00;;;;10342040;28;45205;-63
2022/04/09 11:10:36;;;;;;;1.13;0.08;;;17.90;36.20;20.70;93462.00;;;;10342423;28;46286;-63
2022/04/09 11:15:38;;;;;;;0.32;0.13;;;17.90;36.30;20.70;93459.00;;;;10341991;28;46540;-63
2022/04/09 11:20:41;;;;;;;0.60;0.13;;;17.90;36.10;20.70;93456.00;;;;10359455;28;45269;-63
2022/04/09 11:25:44;;;;;;;0.10;0.00;;;17.90;36.20;20.70;93465.00;;;;10341491;28;46586;-63
2022/04/09 11:30:58;;;;;;;0.73;0.20;;;18.00;36.20;20.70;93469.00;;;;10341517;28;45183;-63
2022/04/09 11:36:02;;;;;;;0.45;0.10;;;17.90;36.10;20.70;93464.00;;;;10357953;28;45333;-63
2022/04/09 11:41:19;;;;;;;0.25;0.10;;;17.90;35.90;20.70;93463.00;;;;10341682;28;47220;-63
2022/04/09 11:46:20;;;;;;;0.85;0.20;;;17.90;35.80;20.70;93471.00;;;;10341095;28;45330;-63
2022/04/09 11:51:20;;;;;;;0.32;0.10;;;18.00;35.90;20.70;93477.00;;;;10340811;28;47007;-64
2022/04/09 11:56:21;;;;;;;0.80;0.35;;;17.90;35.80;20.70;93498.00;;;;10340346;28;46117;-64
2022/04/09 12:01:22;;;;;;;0.47;0.10;;;17.90;35.80;20.70;93491.00;;;;10324256;28;47592;-63
2022/04/09 12:06:23;;;;;;;0.40;0.10;;;17.90;35.60;20.70;93493.00;;;;10339516;28;48274;-63
2022/04/09 12:11:23;;;;;;;0.45;0.20;;;17.90;35.50;20.70;93493.00;;;;10340319;28;47996;-65
2022/04/09 12:16:25;;;;;;;0.20;0.10;;;17.90;35.40;20.70;93509.00;;;;10339636;28;45496;-64
2022/04/09 12:21:27;;;;;;;0.20;0.20;;;17.90;35.30;20.80;93509.00;;;;10338415;28;45341;-65
2022/04/09 12:26:29;;;;;;;1.35;0.10;;;17.90;35.20;20.80;93513.00;;;;10337960;28;45511;-65
2022/04/09 12:31:32;;;;;;;0.80;0.10;;;17.90;35.00;20.80;93499.00;;;;10339222;28;48240;-64
2022/04/09 12:36:33;;;;;;;0.65;0.30;;;17.90;35.00;20.70;93506.00;;;;10356383;28;45532;-63
2022/04/09 12:41:45;;;;;;;1.10;0.15;;;17.90;34.90;20.70;93515.00;;;;10339200;28;46648;-63
2022/04/09 12:46:49;;;;;;;0.10;0.10;;;17.90;34.70;20.70;93521.00;;;;10337983;28;47517;-63
2022/04/09 12:51:49;;;;;;;0.22;0.22;;;17.90;34.70;20.70;93523.00;;;;10339252;28;45219;-63
2022/04/09 12:56:51;;;;;;;1.20;0.35;;;17.90;35.30;20.70;93530.00;;;;10338865;28;46158;-64
2022/04/09 13:01:52;;;;;;;0.52;0.20;;;17.90;34.60;20.70;93523.00;;;;10323635;28;47228;-64
2022/04/09 13:06:52;;;;;;;1.15;0.32;;;18.00;35.10;20.80;93514.00;;;;10297143;28;47176;-64
2022/04/09 13:11:54;;;;;;;1.30;0.25;;;18.00;35.00;20.80;93519.00;;;;10304188;28;45419;-64
2022/04/09 13:16:54;;;;;;;0.45;0.20;;;18.00;35.00;20.90;93508.00;;;;10312894;28;45272;-64
2022/04/09 13:21:55;;;;;;;1.20;0.20;;;18.10;34.80;20.90;93504.00;;;;10339343;28;46311;-63
2022/04/09 13:26:56;;;;;;;0.50;0.20;;;18.10;34.80;20.90;93515.00;;;;10317080;28;45315;-64
2022/04/09 13:31:57;;;;;;;0.40;0.20;;;18.20;34.80;20.90;93509.00;;;;10337601;28;45223;-64
2022/04/09 13:36:57;;;;;;;0.47;0.32;;;18.10;35.00;20.90;93500.00;;;;10298809;28;46283;-64
2022/04/09 13:41:59;;;;;;;0.60;0.40;;;18.20;35.00;20.90;93509.00;;;;10329647;28;46329;-63
2022/04/09 13:47:00;;;;;;;1.10;0.32;;;18.20;35.00;21.00;93499.00;;;;10321556;28;45340;-63
2022/04/09 13:52:03;;;;;;;0.47;0.30;;;18.20;35.10;21.00;93486.00;;;;10324900;28;46737;-64
2022/04/09 13:57:05;;;;;;;1.20;0.45;;;18.20;35.10;20.90;93502.00;;;;10306369;28;46196;-63
2022/04/09 14:02:07;;;;;;;1.17;0.30;;;18.20;35.40;21.00;93486.00;;;;10320959;28;47572;-63
2022/04/09 14:07:07;;;;;;;0.82;0.17;;;18.20;35.20;21.00;93502.00;;;;10314854;28;46750;-64
2022/04/09 14:12:08;;;;;;;0.95;0.30;;;18.20;35.20;21.00;93499.00;;;;10312502;28;46212;-64
2022/04/09 14:17:09;;;;;;;0.40;0.20;;;18.20;35.20;21.00;93487.00;;;;10299231;28;46274;-65
2022/04/09 14:22:10;;;;;;;0.57;0.20;;;18.20;35.30;21.00;93506.00;;;;10314963;28;45475;-64
2022/04/09 14:27:11;;;;;;;0.25;0.15;;;18.30;35.60;21.00;93501.00;;;;10319125;28;45434;-63
2022/04/09 14:32:11;;;;;;;0.68;0.30;;;18.20;35.60;21.00;93492.00;;;;10318716;28;45117;-63
2022/04/09 14:37:12;;;;;;;0.63;0.22;;;18.30;35.40;21.00;93497.00;;;;10299449;28;46968;-63
2022/04/09 14:42:13;;;;;;;1.48;0.20;;;18.20;35.40;21.10;93491.00;;;;10333036;28;45365;-63
2022/04/09 14:47:13;;;;;;;0.38;0.20;;;18.30;35.10;21.10;93497.00;;;;10301594;28;45301;-64
2022/04/09 14:52:14;;;;;;;1.15;0.30;;;18.30;35.10;21.10;93487.00;;;;10338679;28;45531;-63
2022/04/09 14:57:15;;;;;;;0.68;0.40;;;18.30;35.00;21.10;93498.00;;;;10317379;28;46922;-63
2022/04/09 15:02:15;;;;;;;0.98;0.38;;;18.30;35.10;21.10;93493.00;;;;10353118;28;45303;-63
2022/04/09 15:07:16;;;;;;;1.35;0.38;;;18.30;35.00;21.00;93492.00;;;;10326049;28;46233;-63
2022/04/09 15:12:17;;;;;;;0.63;0.32;;;18.20;34.90;21.00;93502.00;;;;10317969;28;45401;-63
2022/04/09 15:17:17;;;;;;;0.60;0.30;;;18.10;35.10;21.00;93497.00;;;;10300674;28;46975;-63
2022/04/09 15:22:18;;;;;;;2.17;0.45;;;18.20;35.10;21.00;93500.00;;;;10298194;28;48167;-63
2022/04/09 15:27:19;;;;;;;0.70;0.38;;;18.20;34.80;21.00;93505.00;;;;10297069;28;46783;-63
2022/04/09 15:32:20;;;;;;;1.35;0.60;;;18.20;34.60;21.00;93502.00;;;;10318330;28;45589;-63
2022/04/09 15:37:22;;;;;;;0.45;0.32;;;18.20;34.50;21.00;93511.00;;;;10300398;28;45271;-63
2022/04/09 15:42:23;;;;;;;1.33;0.40;;;18.10;34.50;20.90;93504.00;;;;10300617;28;45298;-63
2022/04/09 15:47:23;;;;;;;0.50;0.30;;;18.10;34.50;20.90;93516.00;;;;10300156;28;45488;-63
2022/04/09 15:52:24;;;;;;;0.47;0.40;;;18.10;34.50;20.90;93529.00;;;;10299957;28;47146;-64
2022/04/09 15:57:25;;;;;;;0.98;0.32;;;18.10;34.30;21.00;93516.00;;;;10283341;28;48171;-63
2022/04/09 16:02:26;;;;;;;0.77;0.40;;;18.10;34.30;21.00;93511.00;;;;10314926;28;45372;-63
2022/04/09 16:07:26;;;;;;;0.95;0.30;;;18.20;34.20;21.00;93523.00;;;;10294277;28;46691;-64
2022/04/09 16:12:27;;;;;;;0.70;0.35;;;18.20;34.10;21.00;93522.00;;;;10299442;28;47083;-63
2022/04/09 16:17:28;;;;;;;0.68;0.30;;;18.10;33.90;21.00;93544.00;;;;10299059;28;45365;-63
2022/04/09 16:22:29;;;;;;;0.40;0.30;;;18.20;33.80;21.00;93532.00;;;;10298202;28;45385;-63
2022/04/09 16:27:29;;;;;;;0.50;0.30;;;18.20;33.80;21.00;93531.00;;;;10298480;28;45965;-63
2022/04/09 16:32:30;;;;;;;0.60;0.40;;;18.20;33.50;21.00;93529.00;;;;10298997;28;47028;-63
2022/04/09 16:37:31;;;;;;;0.80;0.43;;;18.20;33.30;21.00;93554.00;;;;10281810;28;47432;-63
2022/04/09 16:42:31;;;;;;;0.57;0.40;;;18.20;33.30;21.00;93558.00;;;;10294170;28;45322;-63
2022/04/09 16:47:32;;;;;;;0.70;0.40;;;18.20;33.20;21.00;93552.00;;;;10295757;28;47336;-63
2022/04/09 16:52:33;;;;;;;0.95;0.60;;;18.20;33.30;21.00;93565.00;;;;10316134;28;46424;-63
2022/04/09 16:57:33;;;;;;;1.05;0.50;;;18.20;33.10;21.00;93588.00;;;;10311868;28;45360;-64
2022/04/09 17:02:34;;;;;;;0.75;0.52;;;18.20;33.10;20.90;93582.00;;;;10315767;22;47187;-63
2022/04/09 17:07:35;;;;;;;1.25;0.70;;;18.10;33.10;20.90;93586.00;;;;10313126;28;46257;-63
2022/04/09 17:12:36;;;;;;;1.13;0.60;;;18.10;32.90;20.90;93609.00;;;;10319046;28;45333;-63
2022/04/09 17:17:37;;;;;;;1.15;0.60;;;18.10;32.80;20.90;93606.00;;;;10336616;28;47082;-63
2022/04/09 17:22:38;;;;;;;1.10;0.70;;;18.10;32.90;20.90;93606.00;;;;10354029;28;45312;-63
2022/04/09 17:27:39;;;;;;;1.05;0.60;;;18.10;33.10;20.90;93610.00;;;;10355391;28;45401;-63
2022/04/09 17:32:40;;;;;;;0.60;0.52;;;18.10;33.20;20.90;93603.00;;;;10336692;28;47106;-63
2022/04/09 17:37:40;;;;;;;1.00;0.70;;;18.10;33.20;20.90;93606.00;;;;10354392;28;45466;-63
2022/04/09 17:42:43;;;;;;;0.95;0.50;;;18.10;33.30;20.90;93614.00;;;;10336250;28;47064;-63
2022/04/09 17:47:44;;;;;;;1.92;0.60;;;18.10;33.30;20.90;93617.00;;;;10337367;28;45214;-63
2022/04/09 17:52:45;;;;;;;0.60;0.50;;;18.10;33.30;20.90;93609.00;;;;10336856;28;46614;-63
2022/04/09 17:57:46;;;;;;;0.50;0.40;;;18.10;33.30;20.90;93626.00;;;;10335716;28;47534;-63
2022/04/09 18:02:48;;;;;;;1.10;0.43;;;18.10;33.30;20.90;93614.00;;;;10336348;28;45392;-63
2022/04/09 18:07:48;;;;;;;1.35;0.60;;;18.10;33.40;20.90;93627.00;;;;10335380;28;45499;-63
2022/04/09 18:12:50;;;;;;;1.15;0.60;;;18.10;33.40;20.90;93636.00;;;;10334938;28;45209;-63
2022/04/09 18:17:50;;;;;;;0.75;0.50;;;18.00;33.40;20.90;93629.00;;;;10353977;28;46486;-63
2022/04/09 18:22:52;;;;;;;1.65;0.80;;;18.10;33.30;20.90;93647.00;;;;10353428;28;45285;-63
2022/04/09 18:27:53;;;;;;;0.85;0.60;;;18.10;33.30;20.90;93658.00;;;;10353650;28;45210;-63
2022/04/09 18:32:54;;;;;;;0.93;0.52;;;18.10;33.30;20.90;93650.00;;;;10353127;28;45171;-63
2022/04/09 18:37:55;;;;;;;0.82;0.75;;;18.10;33.30;20.90;93659.00;;;;10353136;28;45966;-63
2022/04/09 18:42:55;;;;;;;1.10;0.80;;;18.10;33.20;20.90;93677.00;;;;10335383;28;45437;-62
2022/04/09 18:47:56;;;;;;;1.40;0.88;;;18.10;33.30;20.90;93695.00;;;;10342382;28;47122;-62
2022/04/09 18:52:57;;;;;;;1.15;0.90;;;18.10;33.90;20.90;93712.00;;;;10359700;28;45555;-63
2022/04/09 18:57:58;;;;;;;1.35;0.90;;;18.10;33.10;20.90;93708.00;;;;10341824;28;45413;-63
2022/04/09 19:02:59;;;;;;;0.73;0.60;;;18.10;33.10;20.90;93722.00;;;;10358834;28;45174;-62
2022/04/09 19:07:59;;;;;;;0.98;0.68;;;18.10;33.10;20.90;93743.00;;;;10341944;28;45403;-63
2022/04/09 19:13:00;;;;;;;1.20;0.70;;;18.10;33.10;20.90;93749.00;;;;10341851;28;45630;-63
2022/04/09 19:18:02;;;;;;;1.52;0.70;;;18.10;33.10;20.90;93744.00;;;;10341409;28;48195;-63
2022/04/09 19:23:03;;;;;;;0.88;0.70;;;18.10;33.00;20.90;93739.00;;;;10341672;28;47124;-63
2022/04/09 19:28:06;;;;;;;1.10;0.70;;;18.10;33.00;20.90;93755.00;;;;10340633;28;46615;-62
2022/04/09 19:33:07;;;;;;;1.00;0.80;;;18.10;33.00;20.90;93765.00;;;;10341493;28;46356;-63
2022/04/09 19:38:08;;;;;;;1.08;0.90;;;18.10;33.10;20.90;93753.00;;;;10341201;28;45607;-62
2022/04/09 19:43:09;;;;;;;1.58;1.00;;;18.10;33.00;20.90;93755.00;;;;10340896;28;48234;-63
2022/04/09 19:48:09;;;;;;;1.45;1.00;;;18.10;33.10;20.90;93759.00;;;;10358349;28;45261;-62
2022/04/09 19:53:10;;;;;;;1.40;1.08;;;18.10;32.90;20.90;93784.00;;;;10340713;28;46358;-62
2022/04/09 19:58:14;;;;;;;1.40;1.00;;;18.10;32.90;20.90;93778.00;;;;10339820;28;47142;-63
2022/04/09 20:03:16;;;;;;;2.08;0.82;;;18.10;32.70;20.90;93794.00;;;;10357334;28;45555;-63
2022/04/09 20:08:16;;;;;;;0.95;0.70;;;18.10;32.70;20.90;93804.00;;;;10340140;28;47359;-63
2022/04/09 20:13:19;;;;;;;1.25;0.70;;;18.10;32.70;20.90;93793.00;;;;10339840;28;45446;-63
2022/04/09 20:18:19;;;;;;;1.63;0.80;;;18.10;32.70;20.90;93799.00;;;;10339423;28;46375;-63
2022/04/09 20:23:22;;;;;;;1.20;0.90;;;18.10;32.90;20.90;93799.00;;;;10357602;28;45315;-62
2022/04/09 20:28:23;;;;;;;0.82;0.70;;;18.10;32.90;20.90;93799.00;;;;10340212;28;46119;-63
2022/04/09 20:33:23;;;;;;;0.70;0.60;;;18.00;32.80;20.90;93795.00;;;;10356991;28;45354;-63
2022/04/09 20:38:24;;;;;;;1.17;0.70;;;18.00;32.90;20.90;93799.00;;;;10339419;28;45195;-63
2022/04/09 20:43:27;;;;;;;1.40;0.68;;;18.00;32.90;20.90;93806.00;;;;10338945;28;46987;-62
2022/04/09 20:48:28;;;;;;;1.48;0.60;;;18.00;33.00;20.80;93818.00;;;;10322489;28;47138;-63
2022/04/09 20:53:29;;;;;;;1.13;0.80;;;18.00;33.00;20.80;93819.00;;;;10338406;28;45541;-63
2022/04/09 20:58:30;;;;;;;0.90;0.60;;;17.90;33.00;20.80;93820.00;;;;10356341;28;45416;-63
2022/04/09 21:03:31;;;;;;;1.08;0.70;;;17.90;33.00;20.80;93830.00;;;;10337941;28;46404;-63
2022/04/09 21:08:32;;;;;;;0.60;0.60;;;17.90;33.20;20.70;93846.00;;;;10338021;28;45520;-63
2022/04/09 21:13:35;;;;;;;0.98;0.57;;;17.90;33.20;20.70;93846.00;;;;10338815;28;45273;-63
2022/04/09 21:18:36;;;;;;;0.73;0.50;;;17.90;33.20;20.70;93850.00;;;;10332440;28;45310;-63
2022/04/09 21:23:37;;;;;;;0.55;0.43;;;17.80;33.10;20.70;93846.00;;;;10336266;28;46984;-63
2022/04/09 21:28:37;;;;;;;1.10;0.70;;;17.80;33.20;20.70;93839.00;;;;10355184;28;45255;-62
2022/04/09 21:33:38;;;;;;;0.55;0.40;;;17.80;33.20;20.70;93852.00;;;;10337510;28;45260;-62
2022/04/09 21:38:39;;;;;;;0.90;0.52;;;17.80;33.10;20.60;93856.00;;;;10354899;28;45242;-63
2022/04/09 21:43:39;;;;;;;0.70;0.40;;;17.80;33.10;20.60;93861.00;;;;10337305;28;45414;-63
2022/04/09 21:48:44;;;;;;;0.52;0.40;;;17.80;33.20;20.60;93860.00;;;;10354539;28;46290;-63
2022/04/09 21:53:44;;;;;;;0.50;0.47;;;17.70;33.10;20.60;93873.00;;;;10337479;28;45259;-62
2022/04/09 21:58:45;;;;;;;0.55;0.40;;;17.70;33.10;20.60;93882.00;;;;10336932;28;45166;-62
2022/04/09 22:03:45;;;;;;;0.70;0.50;;;17.70;33.10;20.60;93884.00;;;;10336550;28;47282;-62